Airfield :
LOGIN :

Register | Disclaimer

   EN    FR    IT 

 










Legend :    VFR   Marginal VFR   IFR   Intensive IFR   Very Intensive IFR
Visi :
Ceiling :
>= 8 km
>= 3000ft
5 to 8 km
1000 to 3000 ft
1500m to 5 km
500 to 1000 ft
800 to 1500m
200 to 500 ft
< 800m
< 200 ft
Symbols :   Thunderstorms  Fog  Heavy snow  Heavy precipitations  Wind > 20 kt
SIGMETs :     Misc.  Thunderstorms  Icing  Turbulence  Mountain Waves  Volcanic Ashes







- Airport Elevation : 33 ft
- IATA code : MHZ


EGUN - RAF Mildenhall

CURRENT METAR :
  • 180656Z AUTO 05007KT 9999 OVC030 10/10 A2992 RMK AO2 SLP135 T00990099 $

EXPIRED METARs :
  • 180556Z AUTO 05004KT 9999 OVC032 10/10 A2992 RMK AO2 RAE00DZB00E01 SLP135 P0000 60000 T00980098 10109 20098 55006 $
  • 180501Z AUTO 01004KT 9999 OVC035 10/10 A2994 RMK AO2 RAE00DZB00E01 SLP142 $
  • 180428Z AUTO 03005KT 9999 -RA FEW011 FEW018 SCT027 OVC035 10/10 A2993 RMK AO2 RAB28 SLP138 $

TAF AMD TAF EGUN
Valid from the 18 at 05:00 until the 19 at 10:00 UTC


180515Z 1805/1910 VRB06KT 9999 OVC035 QNH2988INS
BECMG 1810/1811 08009KT 8000 -RA OVC020 QNH2983INS
BECMG 1813/1814 13009KT 8000 -RA OVC010 QNH2981INS
TEMPO 1816/1822 BKN006
BECMG 1821/1822 VRB06KT 5000 BR SCT010 BKN025 QNH2978INS
BECMG 1823/1824 VRB06KT 3200 BR SCT030 BKN040 QNH2973INS
BECMG 1908/1909 25009KT 9999 NSW SCT030 BKN080 610809 611701 QNH2970INS TX15/1814Z TN10/1805Z
No reported NOTAMs for that airfield.



MET'MAP, your aeronautical weather chart ! - Copyright ORBIFLY December 2007 - Disclaimer

ORBIFLY MET'MAP TEAM :

Programming & Development : Alexandra Zaïnal
Concept & Development : Baudouin d'Aumeries
Co-Development & Prog : Marc-Olivier Méhu
Technical & hardware support : Manuel Goepfert

Contact : metmap@orbifly.com




SOURCES & CREDITS :

   NOAA